Time;durP1;ratioP1;P1;durP2;ratioP2;P2;SDS_P1;SDS_P2;PMS_P1;PMS_P2;Temp;Humidity;BMP_temperature;BMP_pressure;BME280_temperature;BME280_humidity;BME280_pressure;Samples;Min_cycle;Max_cycle;Signal;HPM_P1;HPM_P2
2022/11/12 00:01:03;;;;;;;14.32;8.18;;;;;;;9.48;100.00;99185.50;4896598;29;20146;-76
2022/11/12 00:03:28;;;;;;;18.38;8.93;;;;;;;9.61;100.00;99197.56;4914406;29;20437;-74
2022/11/12 00:05:54;;;;;;;18.73;9.77;;;;;;;9.61;100.00;99191.34;4914834;29;20127;-75
2022/11/12 00:08:19;;;;;;;14.98;8.25;;;;;;;9.52;100.00;99184.50;4923212;29;20043;-73
2022/11/12 00:10:45;;;;;;;12.80;8.30;;;;;;;9.55;100.00;99191.53;4916463;29;20051;-75
2022/11/12 00:13:11;;;;;;;17.42;8.63;;;;;;;9.53;100.00;99185.38;4916583;29;20066;-74
2022/11/12 00:15:36;;;;;;;16.63;8.70;;;;;;;9.51;100.00;99196.09;4916251;29;20031;-75
2022/11/12 00:18:02;;;;;;;14.43;8.00;;;;;;;9.54;100.00;99197.78;4900801;29;20118;-74
2022/11/12 00:20:28;;;;;;;19.52;8.13;;;;;;;9.48;100.00;99190.84;4916192;29;20094;-75
2022/11/12 00:22:53;;;;;;;15.57;8.10;;;;;;;9.49;100.00;99199.75;4933560;29;20024;-75
2022/11/12 00:25:19;;;;;;;13.35;8.32;;;;;;;9.48;100.00;99200.66;4933399;29;20037;-76
2022/11/12 00:27:44;;;;;;;18.13;9.32;;;;;;;9.50;100.00;99204.19;4933369;29;20043;-75
2022/11/12 00:30:10;;;;;;;13.95;8.27;;;;;;;9.47;100.00;99201.59;4933390;29;20039;-75
2022/11/12 00:32:36;;;;;;;21.33;10.02;;;;;;;9.48;100.00;99200.66;4935886;29;20160;-75
2022/11/12 00:35:03;;;;;;;14.18;8.05;;;;;;;9.47;100.00;99191.78;4922738;29;20055;-75
2022/11/12 00:37:29;;;;;;;16.02;8.88;;;;;;;9.42;100.00;99184.81;4922740;29;20032;-75
2022/11/12 00:39:54;;;;;;;21.30;8.57;;;;;;;9.48;100.00;99195.31;4906934;29;20054;-74
2022/11/12 00:42:20;;;;;;;13.77;7.82;;;;;;;9.46;100.00;99192.69;4922774;29;20047;-74
2022/11/12 00:44:45;;;;;;;15.82;8.20;;;;;;;9.39;100.00;99185.78;4922448;29;20053;-74
2022/11/12 00:47:11;;;;;;;14.65;8.10;;;;;;;9.44;100.00;99181.22;4922630;29;20134;-75
2022/11/12 00:49:36;;;;;;;14.15;7.50;;;;;;;9.43;100.00;99175.91;4939297;29;20036;-75
2022/11/12 00:52:02;;;;;;;18.48;8.82;;;;;;;9.44;100.00;99169.66;4939835;29;20047;-73
2022/11/12 00:54:28;;;;;;;13.10;7.95;;;;;;;9.40;100.00;99151.94;4922355;29;20119;-74
2022/11/12 00:56:53;;;;;;;19.30;10.00;;;;;;;9.38;100.00;99161.81;4922482;29;20039;-74
2022/11/12 00:59:19;;;;;;;14.68;8.50;;;;;;;9.26;100.00;99166.59;4922793;29;20028;-75
2022/11/12 01:01:44;;;;;;;15.95;9.68;;;;;;;9.24;100.00;99172.91;4906404;29;20083;-74
2022/11/12 01:04:10;;;;;;;16.52;10.13;;;;;;;9.25;100.00;99178.22;4939583;29;20031;-74
2022/11/12 01:06:38;;;;;;;20.40;11.10;;;;;;;9.21;100.00;99173.88;4939505;29;20111;-75
2022/11/12 01:09:03;;;;;;;19.30;11.00;;;;;;;9.23;100.00;99185.38;4922519;29;20032;-75
2022/11/12 01:11:29;;;;;;;22.45;12.32;;;;;;;9.21;100.00;99181.91;4922345;29;20891;-74
2022/11/12 01:13:57;;;;;;;19.75;12.18;;;;;;;9.29;100.00;99196.81;4939881;29;20529;-75
2022/11/12 01:16:25;;;;;;;25.15;12.73;;;;;;;9.26;100.00;99193.31;4922743;29;20105;-75
2022/11/12 01:18:56;;;;;;;25.50;12.63;;;;;;;9.22;100.00;99193.47;4922163;29;20031;-74
2022/11/12 01:21:24;;;;;;;20.75;10.50;;;;;;;9.25;100.00;99193.38;4922368;29;20510;-74
2022/11/12 01:23:50;;;;;;;23.70;10.10;;;;;;;9.23;100.00;99185.38;4906232;29;20043;-75
2022/11/12 01:26:17;;;;;;;20.60;9.80;;;;;;;9.21;100.00;99187.25;4922503;29;20106;-75
2022/11/12 01:28:43;;;;;;;17.67;9.93;;;;;;;9.16;100.00;99186.50;4922366;29;20380;-75
2022/11/12 01:31:10;;;;;;;19.92;10.02;;;;;;;9.19;100.00;99189.09;4922166;29;20118;-75
2022/11/12 01:33:36;;;;;;;16.83;9.57;;;;;;;9.09;100.00;99182.28;4915022;29;20028;-74
2022/11/12 01:36:01;;;;;;;17.55;8.77;;;;;;;9.16;100.00;99178.50;4887457;29;20059;-74
2022/11/12 01:38:27;;;;;;;16.58;9.48;;;;;;;9.21;100.00;99173.88;4920128;29;20051;-74
2022/11/12 01:40:52;;;;;;;19.42;9.23;;;;;;;9.29;100.00;99175.47;4903007;29;20020;-74
2022/11/12 01:43:18;;;;;;;17.38;9.50;;;;;;;9.16;100.00;99173.16;4919605;29;20067;-74
2022/11/12 01:45:46;;;;;;;17.10;9.52;;;;;;;9.07;100.00;99165.44;4916428;29;20051;-74
2022/11/12 01:48:24;;;;;;;22.92;11.25;;;;;;;9.08;100.00;99163.63;4885170;29;20150;-75
2022/11/12 01:50:50;;;;;;;24.75;10.35;;;;;;;9.06;100.00;99161.00;4900024;29;20024;-75
2022/11/12 01:53:17;;;;;;;32.35;11.35;;;;;;;9.06;100.00;99158.34;4900084;29;20035;-75
2022/11/12 01:55:42;;;;;;;27.67;11.15;;;;;;;9.03;100.00;99150.41;4900216;29;20484;-75
2022/11/12 01:58:11;;;;;;;22.92;11.45;;;;;;;9.05;100.00;99151.25;4899968;29;20039;-75
2022/11/12 02:00:39;;;;;;;30.70;13.85;;;;;;;9.20;100.00;99156.09;4900204;29;20020;-74
2022/11/12 02:03:10;;;;;;;25.85;12.95;;;;;;;9.19;100.00;99158.84;4900046;29;20374;-74
2022/11/12 02:05:36;;;;;;;20.88;10.07;;;;;;;9.23;100.00;99160.47;4884581;29;20032;-74
2022/11/12 02:08:02;;;;;;;15.85;9.77;;;;;;;9.12;100.00;99159.94;4899702;29;20024;-74
2022/11/12 02:10:28;;;;;;;17.17;9.13;;;;;;;9.06;100.00;99154.78;4900240;29;20110;-73
2022/11/12 02:15:39;;;;;;;15.43;8.20;;;;;;;9.04;100.00;99156.66;4902697;29;20023;-75
2022/11/12 02:18:05;;;;;;;25.65;10.02;;;;;;;9.06;100.00;99150.31;4899488;29;20107;-74
2022/11/12 02:20:37;;;;;;;17.55;9.60;;;;;;;9.01;100.00;99140.72;4899770;29;20108;-76
2022/11/12 02:23:05;;;;;;;15.65;8.63;;;;;;;8.98;100.00;99140.81;4899410;29;20032;-75
2022/11/12 02:25:31;;;;;;;19.70;9.45;;;;;;;8.92;100.00;99136.50;4899771;29;20047;-75
2022/11/12 02:27:59;;;;;;;17.00;8.88;;;;;;;8.87;100.00;99133.09;4900249;29;20108;-75
2022/11/12 02:30:37;;;;;;;17.58;8.80;;;;;;;8.74;100.00;99137.06;4899809;29;20032;-76
2022/11/12 02:33:03;;;;;;;14.15;8.27;;;;;;;8.60;100.00;99121.47;4899432;29;20400;-75
2022/11/12 02:35:29;;;;;;;15.45;7.65;;;;;;;8.46;100.00;99120.13;4899427;29;20040;-75
2022/11/12 02:37:55;;;;;;;17.75;8.98;;;;;;;8.42;100.00;99126.44;4883780;29;20032;-75
2022/11/12 02:40:21;;;;;;;16.60;8.80;;;;;;;8.30;100.00;99126.78;4916295;29;20023;-75
2022/11/12 02:42:46;;;;;;;20.25;9.82;;;;;;;8.21;100.00;99130.56;4899335;29;20028;-75
2022/11/12 02:45:12;;;;;;;21.70;9.82;;;;;;;8.13;100.00;99130.75;4902575;29;20023;-74
2022/11/12 02:47:37;;;;;;;23.85;11.07;;;;;;;8.03;100.00;99121.22;4902348;29;20034;-74
2022/11/12 02:50:06;;;;;;;27.70;11.18;;;;;;;8.07;100.00;99149.56;4918195;29;20040;-75
2022/11/12 02:52:32;;;;;;;24.98;11.60;;;;;;;8.02;100.00;99134.63;4921275;29;20036;-75
2022/11/12 02:54:58;;;;;;;31.50;11.68;;;;;;;7.94;100.00;99144.56;4883207;29;20032;-75
2022/11/12 02:57:23;;;;;;;22.55;11.02;;;;;;;7.84;100.00;99154.63;4898191;29;20095;-75
2022/11/12 02:59:49;;;;;;;20.30;10.13;;;;;;;7.81;100.00;99154.69;4899093;29;20024;-75
2022/11/12 03:02:14;;;;;;;22.20;11.18;;;;;;;7.74;100.00;99155.75;4898150;29;20042;-75
2022/11/12 03:04:40;;;;;;;20.48;11.10;;;;;;;7.74;100.00;99157.53;4898802;29;20036;-74
2022/11/12 03:07:05;;;;;;;23.25;10.98;;;;;;;7.77;100.00;99155.69;4915752;29;20044;-75
2022/11/12 03:09:31;;;;;;;30.38;12.45;;;;;;;7.69;100.00;99156.78;4915592;29;20118;-75
2022/11/12 03:11:57;;;;;;;26.25;11.25;;;;;;;7.58;100.00;99159.69;4915543;29;20024;-74
2022/11/12 03:14:22;;;;;;;20.65;10.48;;;;;;;7.56;100.00;99158.88;4882855;29;20032;-73
2022/11/12 03:16:48;;;;;;;22.65;11.25;;;;;;;7.60;100.00;99163.19;4898791;29;20028;-74
2022/11/12 03:19:13;;;;;;;21.55;10.93;;;;;;;7.55;100.00;99159.78;4898747;29;20028;-75
2022/11/12 03:21:39;;;;;;;25.40;11.20;;;;;;;7.49;100.00;99157.25;4915299;29;20126;-76
2022/11/12 03:24:05;;;;;;;27.48;13.20;;;;;;;7.57;100.00;99165.91;4907464;29;20075;-74
2022/11/12 03:26:30;;;;;;;44.13;18.90;;;;;;;7.60;100.00;99168.50;4917408;29;20090;-74
2022/11/12 03:28:56;;;;;;;31.20;15.43;;;;;;;7.67;100.00;99163.91;4934405;29;20546;-73
2022/11/12 03:31:21;;;;;;;19.40;9.73;;;;;;;7.78;100.00;99172.53;4917146;29;20032;-75
2022/11/12 03:33:47;;;;;;;19.05;8.07;;;;;;;7.79;100.00;99169.81;4917433;29;20159;-74
2022/11/12 03:36:12;;;;;;;14.93;7.28;;;;;;;7.75;100.00;99162.84;4934164;29;20043;-74
2022/11/12 03:38:38;;;;;;;15.82;8.98;;;;;;;7.72;100.00;99159.38;4934125;29;20067;-74
2022/11/12 03:41:03;;;;;;;17.52;9.60;;;;;;;7.61;100.00;99151.63;4917080;29;20024;-74
2022/11/12 03:43:29;;;;;;;16.27;8.85;;;;;;;7.64;100.00;99156.88;4917125;29;20026;-74
2022/11/12 03:45:54;;;;;;;19.48;9.05;;;;;;;7.65;100.00;99153.31;4934052;29;20451;-74
2022/11/12 03:48:20;;;;;;;25.08;10.32;;;;;;;7.66;100.00;99151.53;4917093;29;20032;-75
2022/11/12 03:50:46;;;;;;;19.95;8.38;;;;;;;7.62;100.00;99142.75;4892868;29;20043;-75
2022/11/12 03:53:11;;;;;;;18.40;8.75;;;;;;;7.65;100.00;99145.34;4903351;29;20051;-74
2022/11/12 03:55:37;;;;;;;17.88;8.70;;;;;;;7.53;100.00;99141.19;4883270;29;20032;-75
2022/11/12 03:58:02;;;;;;;18.52;8.70;;;;;;;7.62;100.00;99156.94;4882370;29;20040;-74
2022/11/12 04:00:29;;;;;;;16.95;8.80;;;;;;;7.63;100.00;99152.47;4897844;29;20039;-74
2022/11/12 04:02:55;;;;;;;19.42;8.93;;;;;;;7.68;100.00;99157.69;4897990;29;20040;-75
2022/11/12 04:10:50;;;;;;;21.58;11.23;;;;;;;7.65;100.00;99161.31;4900398;29;20035;-75
2022/11/12 04:13:28;;;;;;;30.08;12.52;;;;;;;7.61;100.00;99165.84;4897750;29;20079;-74
2022/11/12 04:21:55;;;;;;;29.20;13.20;;;;;;;7.55;100.00;99159.78;4900416;29;20116;-74
2022/11/12 04:27:25;;;;;;;19.73;9.98;;;;;;;7.50;100.00;99161.69;4900358;29;20099;-74
2022/11/12 04:32:37;;;;;;;21.45;10.25;;;;;;;7.52;100.00;99159.84;4900761;29;20035;-75
2022/11/12 04:35:04;;;;;;;19.20;10.18;;;;;;;7.55;100.00;99170.41;4900424;29;20128;-75
2022/11/12 04:37:43;;;;;;;22.48;9.98;;;;;;;7.57;100.00;99176.56;4916556;29;20066;-73
2022/11/12 04:45:43;;;;;;;28.50;14.25;;;;;;;7.63;100.00;99174.66;4917907;29;20030;-76
2022/11/12 04:48:09;;;;;;;31.67;14.30;;;;;;;7.67;100.00;99174.56;4898188;29;20115;-74
2022/11/12 04:50:35;;;;;;;24.75;12.07;;;;;;;7.71;100.00;99176.25;4914043;29;20119;-74
2022/11/12 04:53:01;;;;;;;35.83;14.70;;;;;;;7.68;100.00;99173.66;4897464;29;20484;-73
2022/11/12 04:55:26;;;;;;;29.38;13.80;;;;;;;7.69;100.00;99178.09;4897270;29;20036;-74
2022/11/12 04:57:52;;;;;;;32.20;15.30;;;;;;;7.73;100.00;99185.06;4914219;29;20024;-74
2022/11/12 05:00:18;;;;;;;72.00;23.67;;;;;;;7.63;100.00;99187.09;4897375;29;20028;-73
2022/11/12 05:02:43;;;;;;;32.28;14.70;;;;;;;7.71;100.00;99176.25;4881741;29;20516;-74
2022/11/12 05:05:09;;;;;;;29.77;13.15;;;;;;;7.73;100.00;99185.97;4914412;29;20035;-75
2022/11/12 05:07:34;;;;;;;26.45;12.38;;;;;;;7.74;100.00;99187.72;4882160;29;20032;-75
2022/11/12 05:10:00;;;;;;;27.58;12.43;;;;;;;7.80;100.00;99189.34;4897119;29;20392;-74
2022/11/12 05:12:25;;;;;;;24.65;13.65;;;;;;;7.73;100.00;99175.31;4881553;29;20032;-75
2022/11/12 05:14:51;;;;;;;29.27;14.95;;;;;;;7.78;100.00;99181.41;4914082;29;20036;-74
2022/11/12 05:17:16;;;;;;;28.52;14.85;;;;;;;7.73;100.00;99185.97;4914113;29;20024;-75
2022/11/12 05:19:42;;;;;;;27.65;14.27;;;;;;;7.68;100.00;99185.19;4931368;29;20122;-75
2022/11/12 05:22:09;;;;;;;34.20;14.65;;;;;;;7.74;100.00;99200.16;4919754;29;20091;-74
2022/11/12 05:24:37;;;;;;;38.10;16.80;;;;;;;7.74;100.00;99195.72;4912574;29;20023;-74
2022/11/12 05:27:05;;;;;;;33.95;16.58;;;;;;;7.77;100.00;99208.06;4900915;29;20020;-74
2022/11/12 05:29:31;;;;;;;42.33;17.83;;;;;;;7.67;100.00;99190.56;4900599;29;20051;-74
2022/11/12 05:31:56;;;;;;;30.27;14.73;;;;;;;7.59;100.00;99194.28;4884770;29;20028;-75
2022/11/12 05:34:22;;;;;;;33.17;15.05;;;;;;;7.55;100.00;99208.59;4917314;29;20044;-74
2022/11/12 05:36:47;;;;;;;40.17;19.05;;;;;;;7.51;100.00;99196.25;4917123;29;20058;-74
2022/11/12 05:39:13;;;;;;;54.03;22.05;;;;;;;7.56;100.00;99202.34;4900232;29;20024;-75
2022/11/12 05:41:39;;;;;;;64.85;31.58;;;;;;;7.55;100.00;99213.91;4900274;29;20028;-75
2022/11/12 05:44:04;;;;;;;53.95;27.60;;;;;;;7.48;100.00;99206.97;4910436;29;20039;-75
2022/11/12 05:46:30;;;;;;;43.00;22.05;;;;;;;7.54;100.00;99224.56;4919662;29;20491;-74
2022/11/12 05:48:55;;;;;;;42.08;20.98;;;;;;;7.59;100.00;99228.03;4919155;29;20030;-75
2022/11/12 05:51:21;;;;;;;42.08;21.48;;;;;;;7.61;100.00;99226.19;4919111;29;20031;-74
2022/11/12 05:53:47;;;;;;;51.17;24.33;;;;;;;7.60;100.00;99224.44;4911550;29;20441;-74
2022/11/12 05:56:12;;;;;;;48.22;26.52;;;;;;;7.64;100.00;99235.00;4900028;29;20032;-74
2022/11/12 05:58:38;;;;;;;46.28;23.83;;;;;;;7.71;100.00;99240.19;4899877;29;20032;-74
2022/11/12 06:01:03;;;;;;;45.70;21.92;;;;;;;7.76;100.00;99244.47;4900033;29;20076;-75
2022/11/12 06:03:29;;;;;;;96.45;41.75;;;;;;;7.84;100.00;99242.53;4900277;29;20451;-74
2022/11/12 06:05:54;;;;;;;64.20;28.25;;;;;;;7.89;100.00;99245.06;4899734;29;20032;-73
2022/11/12 06:08:20;;;;;;;54.63;21.73;;;;;;;7.94;100.00;99238.72;4899640;29;20115;-73
2022/11/12 06:10:51;;;;;;;48.10;23.15;;;;;;;7.94;100.00;99240.50;4899847;29;20107;-75
2022/11/12 06:13:17;;;;;;;53.15;25.00;;;;;;;8.03;100.00;99250.94;4899869;29;20052;-75
2022/11/12 06:15:43;;;;;;;41.50;19.35;;;;;;;8.12;100.00;99242.72;4899745;29;20036;-76
2022/11/12 06:18:08;;;;;;;31.05;13.52;;;;;;;8.16;100.00;99250.59;4883796;29;20039;-74
2022/11/12 06:20:34;;;;;;;31.45;13.50;;;;;;;8.31;100.00;99245.81;4883904;29;20032;-74
2022/11/12 06:23:00;;;;;;;22.60;10.93;;;;;;;8.36;100.00;99230.59;4899437;29;20531;-74
2022/11/12 06:25:25;;;;;;;19.92;10.52;;;;;;;8.47;100.00;99239.19;4898785;29;20055;-75
2022/11/12 06:27:51;;;;;;;20.58;10.85;;;;;;;8.55;100.00;99230.03;4928708;29;20103;-76
2022/11/12 06:30:17;;;;;;;19.25;10.38;;;;;;;8.63;100.00;99219.19;4932277;29;20060;-75
2022/11/12 06:32:47;;;;;;;21.98;10.05;;;;;;;8.74;100.00;99205.56;4897981;29;20024;-76
2022/11/12 06:35:12;;;;;;;26.00;13.48;;;;;;;8.91;100.00;99212.16;4905458;29;20507;-76
2022/11/12 06:37:38;;;;;;;24.73;12.10;;;;;;;8.95;100.00;99211.13;4899750;29;20037;-72
2022/11/12 06:40:04;;;;;;;30.77;14.65;;;;;;;8.93;100.00;99217.44;4932588;29;20046;-74
2022/11/12 06:42:30;;;;;;;26.55;14.60;;;;;;;8.88;100.00;99219.38;4932616;29;20480;-74
2022/11/12 06:44:55;;;;;;;25.98;13.65;;;;;;;8.92;100.00;99213.06;4923906;29;20047;-74
2022/11/12 06:47:21;;;;;;;23.38;11.25;;;;;;;8.79;100.00;99196.50;4913508;29;20041;-73
2022/11/12 06:49:46;;;;;;;23.42;12.05;;;;;;;8.86;100.00;99198.06;4913394;29;20120;-73
2022/11/12 06:52:14;;;;;;;27.00;14.95;;;;;;;8.93;100.00;99186.31;4896038;29;20469;-74
2022/11/12 06:54:39;;;;;;;33.45;15.43;;;;;;;9.04;100.00;99194.88;4887446;29;20043;-73
2022/11/12 06:57:05;;;;;;;29.75;15.73;;;;;;;9.16;100.00;99194.53;4915295;29;20482;-73
2022/11/12 06:59:30;;;;;;;38.33;20.23;;;;;;;9.31;100.00;99186.97;4915354;29;20027;-72
2022/11/12 07:01:56;;;;;;;33.22;19.30;;;;;;;9.38;100.00;99185.84;4932093;29;20464;-73
2022/11/12 07:04:23;;;;;;;41.72;22.80;;;;;;;9.77;100.00;99184.59;4914827;29;20039;-73
2022/11/12 07:06:49;;;;;;;37.30;18.58;;;;;;;10.53;100.00;99184.69;4914869;29;20066;-72
2022/11/12 07:09:14;;;;;;;30.98;16.23;;;;;;;10.96;100.00;99166.13;4905246;29;20055;-72
2022/11/12 07:11:40;;;;;;;38.85;17.40;;;;;;;11.17;100.00;99141.22;4915041;29;20029;-74
2022/11/12 07:14:06;;;;;;;29.85;16.92;;;;;;;11.13;100.00;99149.44;4882885;29;20028;-75
2022/11/12 07:16:32;;;;;;;37.42;18.40;;;;;;;11.12;100.00;99132.50;4898619;29;20093;-74
2022/11/12 07:18:57;;;;;;;17.83;10.18;;;;;;;10.48;100.00;99123.34;4915636;29;20024;-74
2022/11/12 07:21:23;;;;;;;22.38;12.35;;;;;;;9.66;100.00;99119.91;4898393;29;20020;-74
2022/11/12 07:23:48;;;;;;;21.48;11.57;;;;;;;9.50;100.00;99137.41;4898737;29;20020;-72
2022/11/12 07:26:16;;;;;;;22.20;11.38;;;;;;;9.43;100.00;99149.19;4882788;29;20039;-72
2022/11/12 07:28:41;;;;;;;32.97;12.57;;;;;;;9.39;100.00;99152.88;4883006;29;20028;-73
2022/11/12 07:31:09;;;;;;;26.90;15.13;;;;;;;9.48;100.00;99152.56;4898261;29;20465;-74
2022/11/12 07:33:35;;;;;;;40.47;19.35;;;;;;;9.52;100.00;99149.78;4914984;29;20152;-74
2022/11/12 07:36:09;;;;;;;39.45;18.85;;;;;;;9.80;100.00;99155.97;4883030;29;20143;-73
2022/11/12 07:38:36;;;;;;;40.08;19.75;;;;;;;10.01;100.00;99151.69;4898775;29;20052;-73
2022/11/12 07:41:04;;;;;;;35.85;18.40;;;;;;;10.15;100.00;99138.75;4888761;29;20030;-74
2022/11/12 07:43:35;;;;;;;38.03;17.70;;;;;;;10.47;100.00;99126.03;4916602;29;20459;-73
2022/11/12 07:46:03;;;;;;;27.02;15.35;;;;;;;11.44;100.00;99145.47;4934321;29;20031;-74
2022/11/12 07:48:29;;;;;;;20.17;10.88;;;;;;;11.69;100.00;99133.78;4917140;29;20034;-74
2022/11/12 07:51:05;;;;;;;23.63;11.27;;;;;;;11.90;100.00;99111.47;4917058;29;20028;-73
2022/11/12 07:53:31;;;;;;;23.95;12.80;;;;;;;12.08;100.00;99113.38;4917188;29;20030;-73
2022/11/12 07:55:59;;;;;;;25.65;12.15;;;;;;;12.12;100.00;99111.44;4916903;29;20027;-73
2022/11/12 07:58:42;;;;;;;21.92;12.27;;;;;;;12.63;100.00;99106.44;4900358;29;20087;-74
2022/11/12 08:01:07;;;;;;;24.33;11.48;;;;;;;12.70;100.00;99094.50;4891946;29;20058;-74
2022/11/12 08:03:33;;;;;;;29.35;12.88;;;;;;;12.44;100.00;99092.97;4914917;29;20076;-73
2022/11/12 08:06:00;;;;;;;25.90;13.23;;;;;;;12.30;100.00;99083.81;4898014;29;20412;-74
2022/11/12 08:08:25;;;;;;;22.40;12.93;;;;;;;11.84;100.00;99068.84;4897898;29;20032;-75
2022/11/12 08:10:57;;;;;;;25.35;12.60;;;;;;;11.49;100.00;99078.31;4914425;29;20040;-73
2022/11/12 08:13:23;;;;;;;23.50;12.38;;;;;;;11.25;100.00;99068.59;4897653;29;20024;-73
2022/11/12 08:15:49;;;;;;;22.05;11.73;;;;;;;11.08;100.00;99063.91;4882104;29;20036;-74
2022/11/12 08:18:15;;;;;;;20.75;11.77;;;;;;;11.00;100.00;99068.69;4914539;29;20032;-74
2022/11/12 08:20:40;;;;;;;27.23;13.40;;;;;;;10.88;100.00;99066.50;4897439;29;20043;-73
2022/11/12 08:23:06;;;;;;;19.75;10.80;;;;;;;10.73;100.00;99080.47;4914647;29;20051;-73
2022/11/12 08:25:32;;;;;;;24.67;12.02;;;;;;;10.59;100.00;99067.59;4897531;29;20123;-73
2022/11/12 08:27:58;;;;;;;19.25;10.57;;;;;;;10.60;100.00;99061.34;4897236;29;20039;-74
2022/11/12 08:30:26;;;;;;;22.73;12.43;;;;;;;10.53;100.00;99050.91;4897549;29;20036;-74
2022/11/12 08:33:00;;;;;;;20.60;11.50;;;;;;;10.49;100.00;99055.50;4897336;29;20032;-73
2022/11/12 08:35:26;;;;;;;24.00;10.07;;;;;;;10.48;100.00;99066.28;4914344;29;20056;-74
2022/11/12 08:37:59;;;;;;;18.80;10.73;;;;;;;10.63;100.00;99069.25;4897368;29;20156;-73
2022/11/12 08:40:28;;;;;;;25.90;10.52;;;;;;;11.04;100.00;99075.69;4897332;29;20409;-74
2022/11/12 08:42:58;;;;;;;20.42;10.93;;;;;;;11.36;100.00;99067.22;4897361;29;20061;-74
2022/11/12 08:45:24;;;;;;;16.88;8.73;;;;;;;11.18;100.00;99057.25;4914380;29;20087;-73
2022/11/12 08:47:49;;;;;;;19.75;9.82;;;;;;;11.35;100.00;99060.09;4897438;29;20036;-73
2022/11/12 08:50:15;;;;;;;19.13;10.57;;;;;;;11.60;100.00;99054.59;4897631;29;20111;-74
2022/11/12 08:52:41;;;;;;;22.45;11.57;;;;;;;11.38;100.00;99035.03;4914360;29;20515;-74
2022/11/12 08:55:07;;;;;;;21.98;12.27;;;;;;;11.32;100.00;99048.69;4885596;29;20036;-73
2022/11/12 08:57:39;;;;;;;23.00;12.25;;;;;;;11.34;100.00;99058.38;4901175;29;20028;-73
2022/11/12 09:00:05;;;;;;;22.63;11.75;;;;;;;11.55;100.00;99050.38;4901031;29;20559;-74
2022/11/12 09:02:31;;;;;;;25.38;12.63;;;;;;;11.83;100.00;99051.88;4917997;29;20198;-74
2022/11/12 09:04:56;;;;;;;26.00;12.98;;;;;;;11.90;100.00;99037.25;4905342;29;20051;-74
2022/11/12 09:07:22;;;;;;;24.85;12.82;;;;;;;11.50;100.00;99025.59;4936996;29;20095;-74
2022/11/12 09:09:47;;;;;;;25.45;14.40;;;;;;;11.25;100.00;99034.66;4919586;29;20550;-74
2022/11/12 09:12:17;;;;;;;25.85;13.38;;;;;;;11.40;100.00;99047.41;4930380;29;20039;-73
2022/11/12 09:14:43;;;;;;;25.45;13.18;;;;;;;11.24;100.00;99022.19;4885771;29;20072;-73
2022/11/12 09:17:09;;;;;;;25.95;13.80;;;;;;;11.09;100.00;99021.94;4885219;29;20032;-73
2022/11/12 09:19:34;;;;;;;28.67;13.57;;;;;;;11.13;100.00;99027.13;4900495;29;20059;-74
2022/11/12 09:21:59;;;;;;;31.15;13.57;;;;;;;11.09;100.00;99020.13;4917809;29;20107;-73
2022/11/12 09:24:25;;;;;;;24.02;13.35;;;;;;;11.14;100.00;99014.56;4917875;29;20442;-73
2022/11/12 09:26:54;;;;;;;29.63;16.45;;;;;;;11.40;100.00;99017.94;4884972;29;20050;-73
2022/11/12 09:29:20;;;;;;;29.35;14.45;;;;;;;11.34;100.00;99020.88;4900756;29;20032;-73
2022/11/12 09:31:45;;;;;;;27.98;13.05;;;;;;;11.60;100.00;99013.53;4884576;29;20046;-73
2022/11/12 09:34:11;;;;;;;30.33;13.57;;;;;;;11.77;100.00;99011.06;4900579;29;20040;-73
2022/11/12 09:36:37;;;;;;;21.98;12.32;;;;;;;11.51;100.00;99000.53;4917304;29;20040;-75
2022/11/12 09:39:03;;;;;;;22.52;12.02;;;;;;;11.32;100.00;99008.50;4900372;29;20040;-73
2022/11/12 09:41:39;;;;;;;24.33;12.68;;;;;;;11.33;100.00;99008.41;4917666;29;20104;-73
2022/11/12 09:44:11;;;;;;;26.13;13.00;;;;;;;11.20;100.00;99001.81;4900623;29;20035;-73
2022/11/12 09:46:59;;;;;;;29.80;15.57;;;;;;;11.09;100.00;98993.34;4900255;29;20386;-73
2022/11/12 09:49:33;;;;;;;38.80;17.75;;;;;;;11.17;100.00;98995.69;4884622;29;20280;-74
2022/11/12 09:52:04;;;;;;;22.13;11.65;;;;;;;11.16;100.00;98993.97;4900361;29;20035;-73
2022/11/12 09:54:31;;;;;;;23.30;12.15;;;;;;;11.17;100.00;98985.84;4917215;29;20036;-74
2022/11/12 09:56:57;;;;;;;23.63;11.60;;;;;;;10.96;100.00;98992.09;4900135;29;20487;-74
2022/11/12 09:59:28;;;;;;;19.17;10.00;;;;;;;10.93;100.00;98991.34;4884416;29;20128;-73
2022/11/12 10:02:09;;;;;;;19.15;10.63;;;;;;;10.92;100.00;99001.19;4899894;29;20079;-73
2022/11/12 10:04:47;;;;;;;26.88;12.45;;;;;;;10.91;100.00;98999.47;4899504;29;20041;-73
2022/11/12 10:07:21;;;;;;;20.50;11.18;;;;;;;10.84;100.00;98993.47;4917158;29;20411;-74
2022/11/12 10:10:01;;;;;;;39.50;18.23;;;;;;;11.04;100.00;98990.00;4916991;29;20032;-73
2022/11/12 10:12:36;;;;;;;26.67;11.07;;;;;;;11.04;100.00;98999.84;4900019;29;20034;-73
2022/11/12 10:18:08;;;;;;;10.50;5.93;;;;;;;10.85;100.00;98967.56;4905380;29;20094;-73
2022/11/12 10:20:43;;;;;;;13.38;6.10;;;;;;;10.88;100.00;98972.81;4918540;29;20028;-73
2022/11/12 10:23:15;;;;;;;10.93;6.50;;;;;;;10.84;100.00;98974.72;4897639;29;20047;-74
2022/11/12 10:25:42;;;;;;;12.67;5.27;;;;;;;10.77;100.00;98973.22;4916612;29;20031;-75
2022/11/12 10:28:29;;;;;;;11.15;5.95;;;;;;;10.78;100.00;98982.13;4899466;29;20077;-74
2022/11/12 10:30:59;;;;;;;8.90;5.65;;;;;;;10.71;100.00;98981.50;4899228;29;20096;-73
2022/11/12 10:33:29;;;;;;;10.55;5.90;;;;;;;10.68;100.00;98980.75;4899362;29;20099;-73
2022/11/12 10:35:57;;;;;;;9.07;5.28;;;;;;;10.67;100.00;98984.38;4899279;29;20543;-73
2022/11/12 10:38:26;;;;;;;11.07;5.95;;;;;;;10.61;100.00;98980.09;4883529;29;20092;-73
2022/11/12 10:40:52;;;;;;;11.73;5.65;;;;;;;10.69;100.00;98977.13;4883742;29;20028;-74
2022/11/12 10:43:17;;;;;;;18.40;6.45;;;;;;;10.97;100.00;98983.16;4899341;29;20039;-74
2022/11/12 10:45:44;;;;;;;12.98;6.85;;;;;;;11.19;100.00;98981.34;4916393;29;20032;-73
2022/11/12 10:48:39;;;;;;;20.67;7.75;;;;;;;11.54;100.00;98989.66;4899637;29;20172;-73
2022/11/12 10:51:19;;;;;;;18.50;7.25;;;;;;;11.43;100.00;98966.91;4906041;29;20051;-74
2022/11/12 10:53:45;;;;;;;12.25;6.75;;;;;;;11.56;100.00;98969.06;4902546;29;20059;-73
2022/11/12 10:56:30;;;;;;;14.77;7.63;;;;;;;11.59;100.00;98971.59;4917687;29;20095;-73
2022/11/12 10:59:17;;;;;;;12.15;6.97;;;;;;;11.56;100.00;98947.63;4917207;29;20184;-74
2022/11/12 11:01:44;;;;;;;14.85;7.25;;;;;;;11.75;100.00;98962.00;4918010;29;20023;-73
2022/11/12 11:04:28;;;;;;;13.68;6.43;;;;;;;11.66;100.00;98951.66;4918019;29;20113;-73
2022/11/12 11:07:18;;;;;;;13.93;7.00;;;;;;;11.61;100.00;98950.97;4901532;29;20115;-73
2022/11/12 11:09:55;;;;;;;13.80;7.53;;;;;;;11.76;100.00;98961.03;4915929;29;20027;-74
2022/11/12 11:12:22;;;;;;;18.55;7.10;;;;;;;11.46;100.00;98932.88;4906092;29;20043;-74
2022/11/12 11:15:10;;;;;;;12.30;5.93;;;;;;;11.43;100.00;98948.16;4934548;29;20032;-74
2022/11/12 11:17:35;;;;;;;15.50;6.47;;;;;;;11.66;100.00;98943.59;4933968;29;20031;-74
2022/11/12 11:20:03;;;;;;;14.32;7.78;;;;;;;11.76;100.00;98947.63;4934364;29;20043;-74
2022/11/12 11:22:41;;;;;;;16.98;9.13;;;;;;;11.92;100.00;98943.34;4917656;29;20062;-74
2022/11/12 11:25:26;;;;;;;11.48;6.07;;;;;;;12.39;100.00;98954.59;4917248;29;20031;-74
2022/11/12 11:28:10;;;;;;;17.13;8.27;;;;;;;12.83;100.00;98949.75;4917259;29;20039;-72
2022/11/12 11:30:51;;;;;;;13.70;7.78;;;;;;;12.79;100.00;98942.81;4917081;29;20411;-70
2022/11/12 11:33:43;;;;;;;17.30;6.53;;;;;;;12.55;100.00;98938.63;4917386;29;20059;-71
2022/11/12 11:36:17;;;;;;;13.75;6.28;;;;;;;12.28;100.00;98928.25;4901063;29;20138;-70
2022/11/12 11:38:57;;;;;;;18.35;8.68;;;;;;;12.04;100.00;98931.19;4917410;29;20039;-70
2022/11/12 11:41:44;;;;;;;12.60;6.25;;;;;;;11.97;100.00;98925.22;4916914;29;20024;-71
2022/11/12 11:44:43;;;;;;;13.00;6.05;;;;;;;12.03;100.00;98935.66;4910099;29;20035;-72
2022/11/12 11:47:33;;;;;;;18.83;9.13;;;;;;;11.99;100.00;98930.53;4917932;29;20039;-71
2022/11/12 11:49:59;;;;;;;16.30;8.68;;;;;;;11.86;100.00;98911.44;4895308;29;20436;-70